Time;durP1;ratioP1;P1;durP2;ratioP2;P2;SDS_P1;SDS_P2;PMS_P1;PMS_P2;Temp;Humidity;BMP_temperature;BMP_pressure;BME280_temperature;BME280_humidity;BME280_pressure;Samples;Min_cycle;Max_cycle;Signal;HPM_P1;HPM_P2
2022/06/24 00:01:00;;;;;;;;;;;;;;;28.55;52.07;98545.13;2043407;28;19949;-55
2022/06/24 00:02:02;;;;;;;;;;;;;;;28.56;51.97;98544.03;2045483;28;19934;-53
2022/06/24 00:03:03;;;;;;;;;;;;;;;28.57;51.95;98551.13;2051207;28;19926;-55
2022/06/24 00:04:05;;;;;;;;;;;;;;;28.57;51.83;98544.84;2050454;28;19931;-54
2022/06/24 00:05:07;;;;;;;;;;;;;;;28.57;51.88;98539.41;2049577;28;19930;-54
2022/06/24 00:06:12;;;;;;;;;;;;;;;28.57;51.88;98542.94;2050514;28;20421;-55
2022/06/24 00:07:15;;;;;;;;;;;;;;;28.55;51.74;98547.84;2049544;28;19941;-55
2022/06/24 00:08:15;;;;;;;;;;;;;;;28.56;51.85;98544.03;2049203;28;19969;-55
2022/06/24 00:09:17;;;;;;;;;;;;;;;28.52;52.53;98542.94;2048503;28;21917;-55
2022/06/24 00:10:22;;;;;;;;;;;;;;;28.55;52.34;98542.38;2047797;28;19973;-55
2022/06/24 00:11:23;;;;;;;;;;;;;;;28.55;51.95;98542.38;2049354;28;19973;-55
2022/06/24 00:12:26;;;;;;;;;;;;;;;28.55;52.38;98547.84;2049092;28;19926;-54
2022/06/24 00:13:37;;;;;;;;;;;;;;;28.55;52.12;98550.56;2048612;28;19956;-54
2022/06/24 00:14:39;;;;;;;;;;;;;;;28.53;52.04;98541.88;2047097;28;20614;-55
2022/06/24 00:15:40;;;;;;;;;;;;;;;28.57;51.92;98550.31;2047783;28;19937;-53
2022/06/24 00:16:55;;;;;;;;;;;;;;;28.57;51.96;98542.13;2047738;28;20578;-54
2022/06/24 00:17:56;;;;;;;;;;;;;;;28.56;51.87;98538.59;2045466;28;20594;-52
2022/06/24 00:19:10;;;;;;;;;;;;;;;28.57;51.74;98545.66;2047998;28;19934;-53
2022/06/24 00:20:17;;;;;;;;;;;;;;;28.57;51.77;98537.50;2048212;28;19934;-54
2022/06/24 00:21:18;;;;;;;;;;;;;;;28.57;51.81;98540.22;2049068;28;20036;-55
2022/06/24 00:22:20;;;;;;;;;;;;;;;28.57;51.60;98537.50;2053303;28;19926;-56
2022/06/24 00:23:21;;;;;;;;;;;;;;;28.57;51.56;98540.22;2049337;28;20277;-56
2022/06/24 00:24:23;;;;;;;;;;;;;;;28.57;51.90;98536.69;2047633;28;20003;-55
2022/06/24 00:25:26;;;;;;;;;;;;;;;28.55;51.94;98531.47;2045424;28;20008;-54
2022/06/24 00:26:36;;;;;;;;;;;;;;;28.56;52.17;98535.06;2049043;28;20003;-53
2022/06/24 00:27:38;;;;;;;;;;;;;;;28.57;52.11;98536.69;2050963;28;19987;-56
2022/06/24 00:28:39;;;;;;;;;;;;;;;28.56;51.88;98533.13;2047934;28;19934;-55
2022/06/24 00:29:40;;;;;;;;;;;;;;;28.54;52.02;98524.38;2049143;28;19954;-54
2022/06/24 00:30:41;;;;;;;;;;;;;;;28.55;51.89;98528.75;2049204;28;19934;-56
2022/06/24 00:31:59;;;;;;;;;;;;;;;28.57;51.67;98523.03;2048670;28;19930;-56
2022/06/24 00:33:12;;;;;;;;;;;;;;;28.55;51.72;98519.75;2044247;28;19934;-54
2022/06/24 00:34:22;;;;;;;;;;;;;;;28.56;51.76;98513.22;2048617;28;19930;-54
2022/06/24 00:35:23;;;;;;;;;;;;;;;28.54;51.73;98510.75;2048904;28;19926;-57
2022/06/24 00:36:24;;;;;;;;;;;;;;;28.53;51.58;98517.31;2048389;28;19937;-56
2022/06/24 00:37:27;;;;;;;;;;;;;;;28.53;51.63;98522.75;2046671;28;20055;-55
2022/06/24 00:38:29;;;;;;;;;;;;;;;28.53;51.50;98517.31;2050167;28;19933;-54
2022/06/24 00:39:34;;;;;;;;;;;;;;;28.54;51.64;98510.75;2051326;28;19926;-54
2022/06/24 00:40:36;;;;;;;;;;;;;;;28.53;51.70;98517.31;2045388;28;19974;-57
2022/06/24 00:41:38;;;;;;;;;;;;;;;28.54;51.59;98524.38;2039113;28;19934;-55
2022/06/24 00:42:39;;;;;;;;;;;;;;;28.54;51.89;98518.13;2046035;28;19941;-56
2022/06/24 00:43:42;;;;;;;;;;;;;;;28.54;51.69;98521.66;2050249;28;19961;-57
2022/06/24 00:44:44;;;;;;;;;;;;;;;28.56;51.67;98526.88;2049966;28;19937;-52
2022/06/24 00:45:49;;;;;;;;;;;;;;;28.55;51.42;98525.19;2049481;28;19926;-56
2022/06/24 00:46:50;;;;;;;;;;;;;;;28.55;51.71;98525.19;2049150;28;20319;-55
2022/06/24 00:47:52;;;;;;;;;;;;;;;28.55;51.50;98519.75;2046609;28;20361;-54
2022/06/24 00:48:54;;;;;;;;;;;;;;;28.54;51.57;98524.38;2048455;28;20340;-54
2022/06/24 00:49:58;;;;;;;;;;;;;;;28.54;51.59;98524.38;2046533;28;20029;-55
2022/06/24 00:50:58;;;;;;;;;;;;;;;28.54;51.59;98508.03;2048653;28;19930;-55
2022/06/24 00:52:07;;;;;;;;;;;;;;;28.54;51.61;98515.41;2047986;28;19933;-54
2022/06/24 00:53:08;;;;;;;;;;;;;;;28.54;51.90;98513.47;2045260;28;19944;-53
2022/06/24 00:54:10;;;;;;;;;;;;;;;28.55;51.52;98514.28;2048370;28;19940;-54
2022/06/24 00:55:15;;;;;;;;;;;;;;;28.53;51.82;98506.41;2045631;28;21828;-53
2022/06/24 00:56:19;;;;;;;;;;;;;;;28.54;51.83;98512.66;2046417;28;19984;-54
2022/06/24 00:57:20;;;;;;;;;;;;;;;28.55;51.53;98514.28;2043362;28;19945;-55
2022/06/24 00:58:21;;;;;;;;;;;;;;;28.52;51.58;98511.00;2050493;28;20276;-55
2022/06/24 00:59:22;;;;;;;;;;;;;;;28.54;51.59;98508.03;2048318;28;19933;-57
2022/06/24 01:00:24;;;;;;;;;;;;;;;28.55;51.66;98506.09;2047308;28;19996;-56
2022/06/24 01:01:27;;;;;;;;;;;;;;;28.54;51.67;98504.47;2049042;28;23770;-56
2022/06/24 01:02:28;;;;;;;;;;;;;;;28.54;51.76;98502.56;2053381;28;19933;-54
2022/06/24 01:03:36;;;;;;;;;;;;;;;28.53;51.80;98498.22;2046417;28;19976;-57
2022/06/24 01:04:37;;;;;;;;;;;;;;;28.54;51.59;98497.09;2046094;28;19941;-56
2022/06/24 01:05:38;;;;;;;;;;;;;;;28.55;51.61;98504.19;2045751;28;20279;-56
2022/06/24 01:06:40;;;;;;;;;;;;;;;28.54;51.74;98497.09;2047460;28;19941;-57
2022/06/24 01:07:41;;;;;;;;;;;;;;;28.54;51.72;98497.09;2044913;28;20395;-57
2022/06/24 01:08:43;;;;;;;;;;;;;;;28.53;51.55;98498.22;2049105;28;19930;-56
2022/06/24 01:09:43;;;;;;;;;;;;;;;28.53;51.65;98492.75;2047167;28;19952;-56
2022/06/24 01:10:49;;;;;;;;;;;;;;;28.54;51.68;98496.28;2049822;28;20056;-51
2022/06/24 01:11:51;;;;;;;;;;;;;;;28.52;51.71;98489.19;2046358;28;19952;-52
2022/06/24 01:12:53;;;;;;;;;;;;;;;28.51;51.92;98492.19;2044976;28;19940;-54
2022/06/24 01:13:54;;;;;;;;;;;;;;;28.50;51.69;98491.38;2048274;28;20416;-53
2022/06/24 01:14:55;;;;;;;;;;;;;;;28.51;51.49;98490.28;2048881;28;19998;-55
2022/06/24 01:15:56;;;;;;;;;;;;;;;28.52;51.95;98496.56;2049936;28;19926;-55
2022/06/24 01:16:58;;;;;;;;;;;;;;;28.50;51.67;98491.38;2049315;28;20378;-56
2022/06/24 01:17:58;;;;;;;;;;;;;;;28.50;51.83;98494.13;2048627;28;19930;-56
2022/06/24 01:19:00;;;;;;;;;;;;;;;28.49;51.78;98492.47;2045864;28;20013;-55
2022/06/24 01:20:01;;;;;;;;;;;;;;;28.47;51.71;98491.94;2049173;28;19926;-55
2022/06/24 01:21:03;;;;;;;;;;;;;;;28.49;51.46;98488.91;2047429;28;19926;-51
2022/06/24 01:22:05;;;;;;;;;;;;;;;28.49;51.56;98486.19;2049166;28;19937;-55
2022/06/24 01:23:07;;;;;;;;;;;;;;;28.50;51.63;98479.63;2050102;28;20033;-55
2022/06/24 01:24:08;;;;;;;;;;;;;;;28.50;51.76;98493.28;2048254;28;19944;-53
2022/06/24 01:25:11;;;;;;;;;;;;;;;28.51;51.49;98492.19;2048153;28;19926;-55
2022/06/24 01:26:11;;;;;;;;;;;;;;;28.52;51.67;98491.09;2050291;28;19945;-56
2022/06/24 01:27:13;;;;;;;;;;;;;;;28.51;51.56;98484.00;2051273;28;19936;-55
2022/06/24 01:28:13;;;;;;;;;;;;;;;28.51;51.60;98482.09;2047927;28;19926;-55
2022/06/24 01:29:15;;;;;;;;;;;;;;;28.50;51.63;98485.09;2049587;28;19933;-54
2022/06/24 01:30:16;;;;;;;;;;;;;;;28.49;51.65;98476.09;2047389;28;20608;-53
2022/06/24 01:31:17;;;;;;;;;;;;;;;28.50;51.69;98479.63;2049190;28;19971;-57
2022/06/24 01:32:18;;;;;;;;;;;;;;;28.50;51.62;98476.91;2055161;28;20505;-55
2022/06/24 01:33:19;;;;;;;;;;;;;;;28.48;51.70;98473.66;2048547;28;19936;-56
2022/06/24 01:34:21;;;;;;;;;;;;;;;28.49;51.86;98475.28;2048912;28;19941;-53
2022/06/24 01:35:22;;;;;;;;;;;;;;;28.49;51.68;98469.81;2050946;28;19972;-53
2022/06/24 01:36:23;;;;;;;;;;;;;;;28.49;51.56;98469.81;2050088;28;19941;-56
2022/06/24 01:37:29;;;;;;;;;;;;;;;28.48;51.47;98465.47;2049925;28;20315;-56
2022/06/24 01:38:29;;;;;;;;;;;;;;;28.47;51.52;98470.09;2048231;28;19934;-55
2022/06/24 01:39:31;;;;;;;;;;;;;;;28.47;51.56;98467.38;2049921;28;20591;-50
2022/06/24 01:40:32;;;;;;;;;;;;;;;28.46;51.85;98468.44;2047954;28;19945;-54
2022/06/24 01:41:34;;;;;;;;;;;;;;;28.47;51.66;98469.25;2049994;28;19957;-53
2022/06/24 01:42:34;;;;;;;;;;;;;;;28.46;51.37;98467.63;2051619;28;20527;-54
2022/06/24 01:43:36;;;;;;;;;;;;;;;28.45;51.37;98466.00;2051736;28;19930;-54
2022/06/24 01:44:37;;;;;;;;;;;;;;;28.45;51.53;98468.75;2049228;28;19926;-55
2022/06/24 01:45:38;;;;;;;;;;;;;;;28.45;51.76;98471.47;2050468;28;19938;-54
2022/06/24 01:46:39;;;;;;;;;;;;;;;28.45;51.68;98466.81;2050506;28;19926;-52
2022/06/24 01:47:40;;;;;;;;;;;;;;;28.46;51.86;98463.00;2050284;28;19969;-51
2022/06/24 01:48:41;;;;;;;;;;;;;;;28.46;51.56;98463.00;2048754;28;19961;-54
2022/06/24 01:49:43;;;;;;;;;;;;;;;28.44;51.62;98464.34;2049864;28;19937;-50
2022/06/24 01:50:43;;;;;;;;;;;;;;;28.45;51.87;98455.91;2049077;28;19937;-54
2022/06/24 01:51:48;;;;;;;;;;;;;;;28.46;51.38;98457.53;2052541;28;19930;-52
2022/06/24 01:52:50;;;;;;;;;;;;;;;28.45;51.44;98449.66;2050366;28;19926;-53
2022/06/24 01:53:52;;;;;;;;;;;;;;;28.45;51.45;98455.91;2052741;28;19929;-52
2022/06/24 01:54:53;;;;;;;;;;;;;;;28.46;51.43;98457.53;2049599;28;19933;-53
2022/06/24 01:55:55;;;;;;;;;;;;;;;28.45;51.68;98455.91;2051538;28;19930;-53
2022/06/24 01:56:55;;;;;;;;;;;;;;;28.46;51.57;98457.53;2050817;28;19977;-51
2022/06/24 01:57:57;;;;;;;;;;;;;;;28.46;51.39;98459.44;2049191;28;20399;-54
2022/06/24 01:58:58;;;;;;;;;;;;;;;28.45;51.61;98455.09;2049611;28;19930;-50
2022/06/24 02:00:00;;;;;;;;;;;;;;;28.46;51.38;98459.44;2050514;28;19933;-52
2022/06/24 02:01:00;;;;;;;;;;;;;;;28.45;51.72;98463.28;2050856;28;19960;-51
2022/06/24 02:02:02;;;;;;;;;;;;;;;28.44;51.76;98458.91;2051718;28;19934;-53
2022/06/24 02:03:04;;;;;;;;;;;;;;;28.44;51.88;98461.63;2048143;28;19936;-55
2022/06/24 02:04:06;;;;;;;;;;;;;;;28.44;51.76;98464.34;2057032;28;20395;-54
2022/06/24 02:05:07;;;;;;;;;;;;;;;28.44;51.65;98462.44;2050304;28;20020;-55
2022/06/24 02:06:09;;;;;;;;;;;;;;;28.43;51.71;98462.72;2053030;28;20271;-54
2022/06/24 02:07:10;;;;;;;;;;;;;;;28.44;51.60;98464.34;2051672;28;19934;-52
2022/06/24 02:08:13;;;;;;;;;;;;;;;28.45;51.68;98458.66;2051237;28;19948;-53
2022/06/24 02:09:16;;;;;;;;;;;;;;;28.45;51.64;98466.00;2049090;28;20335;-52
2022/06/24 02:14:16;;;;;;;;;;;;;;;28.44;51.60;98461.63;2048319;28;19937;-54
2022/06/24 02:15:16;;;;;;;;;;;;;;;28.44;51.83;98464.34;2050446;28;22650;-54
2022/06/24 02:16:20;;;;;;;;;;;;;;;28.42;51.53;98461.91;2049255;28;20021;-54
2022/06/24 02:17:20;;;;;;;;;;;;;;;28.44;51.76;98458.91;2048209;28;19930;-54
2022/06/24 02:18:22;;;;;;;;;;;;;;;28.43;51.85;98463.53;2051814;28;21050;-53
2022/06/24 02:19:24;;;;;;;;;;;;;;;28.43;51.66;98462.72;2051244;28;19926;-51
2022/06/24 02:20:24;;;;;;;;;;;;;;;28.45;51.63;98466.00;2050080;28;20409;-53
2022/06/24 02:21:26;;;;;;;;;;;;;;;28.44;51.71;98459.72;2050550;28;19941;-52
2022/06/24 02:22:27;;;;;;;;;;;;;;;28.44;51.69;98465.16;2053294;28;20224;-52
2022/06/24 02:23:30;;;;;;;;;;;;;;;28.45;52.04;98457.81;2050394;28;20021;-52
2022/06/24 02:24:31;;;;;;;;;;;;;;;28.45;51.99;98461.38;2050981;28;20013;-52
2022/06/24 02:25:32;;;;;;;;;;;;;;;28.43;51.97;98460.81;2050340;28;19940;-54
2022/06/24 02:26:33;;;;;;;;;;;;;;;28.44;52.02;98462.44;2048265;28;19957;-55
2022/06/24 02:27:34;;;;;;;;;;;;;;;28.42;52.14;98459.19;2048993;28;20358;-54
2022/06/24 02:28:35;;;;;;;;;;;;;;;28.42;52.13;98461.91;2051475;28;19942;-53
2022/06/24 02:29:39;;;;;;;;;;;;;;;28.42;51.82;98461.06;2049808;28;19930;-55
2022/06/24 02:30:41;;;;;;;;;;;;;;;28.44;52.14;98458.91;2045718;28;20014;-54
2022/06/24 02:31:43;;;;;;;;;;;;;;;28.43;52.25;98452.63;2046207;28;19944;-54
2022/06/24 02:32:43;;;;;;;;;;;;;;;28.44;52.14;98456.16;2047835;28;19933;-55
2022/06/24 02:33:46;;;;;;;;;;;;;;;28.45;51.65;98452.38;2047688;28;19934;-52
2022/06/24 02:34:47;;;;;;;;;;;;;;;28.45;52.19;98458.66;2045349;28;21201;-54
2022/06/24 02:35:49;;;;;;;;;;;;;;;28.45;51.91;98460.56;2048547;28;20003;-55
2022/06/24 02:36:49;;;;;;;;;;;;;;;28.45;52.12;98455.09;2049382;28;19938;-53
2022/06/24 02:37:51;;;;;;;;;;;;;;;28.45;51.71;98460.56;2049080;28;19936;-56
2022/06/24 02:38:53;;;;;;;;;;;;;;;28.44;52.05;98465.16;2044731;28;20017;-57
2022/06/24 02:39:54;;;;;;;;;;;;;;;28.43;51.91;98458.09;2048901;28;20556;-54
2022/06/24 02:40:55;;;;;;;;;;;;;;;28.44;51.91;98465.16;2046417;28;20379;-56
2022/06/24 02:41:57;;;;;;;;;;;;;;;28.45;51.98;98457.81;2047877;28;20382;-54
2022/06/24 02:42:57;;;;;;;;;;;;;;;28.44;51.94;98464.34;2050167;28;19941;-53
2022/06/24 02:43:59;;;;;;;;;;;;;;;28.44;52.20;98461.63;2050613;28;20565;-55
2022/06/24 02:45:00;;;;;;;;;;;;;;;28.45;52.25;98460.56;2049243;28;19934;-57
2022/06/24 02:46:02;;;;;;;;;;;;;;;28.43;52.02;98463.53;2049525;28;20324;-57
2022/06/24 02:47:04;;;;;;;;;;;;;;;28.44;51.98;98453.44;2049370;28;19938;-52
2022/06/24 02:48:06;;;;;;;;;;;;;;;28.44;52.16;98454.25;2046117;28;19988;-55
2022/06/24 02:49:07;;;;;;;;;;;;;;;28.43;51.85;98452.63;2051316;28;19934;-57
2022/06/24 02:50:08;;;;;;;;;;;;;;;28.44;51.79;98453.44;2051415;28;19938;-57
2022/06/24 02:51:11;;;;;;;;;;;;;;;28.44;51.84;98451.53;2046715;28;19930;-56
2022/06/24 02:52:11;;;;;;;;;;;;;;;28.44;51.59;98448.81;2048796;28;19980;-52
2022/06/24 02:53:14;;;;;;;;;;;;;;;28.44;52.02;98448.00;2045416;28;20011;-52
2022/06/24 02:54:17;;;;;;;;;;;;;;;28.42;51.78;98450.16;2049000;28;20956;-56
2022/06/24 02:55:18;;;;;;;;;;;;;;;28.44;51.75;98451.53;2049459;28;19926;-55
2022/06/24 02:56:20;;;;;;;;;;;;;;;28.46;51.89;98454.00;2046940;28;20355;-59
2022/06/24 02:57:20;;;;;;;;;;;;;;;28.44;52.08;98450.72;2050234;28;19926;-57
2022/06/24 02:58:22;;;;;;;;;;;;;;;28.43;51.90;98451.81;2048487;28;19973;-57
2022/06/24 02:59:23;;;;;;;;;;;;;;;28.43;52.11;98451.81;2051423;28;19930;-58
2022/06/24 03:00:24;;;;;;;;;;;;;;;28.43;51.94;98454.53;2050381;28;19940;-57
2022/06/24 03:01:26;;;;;;;;;;;;;;;28.42;51.67;98451.00;2049969;28;20557;-52
2022/06/24 03:02:27;;;;;;;;;;;;;;;28.45;51.35;98455.91;2050931;28;19934;-54
2022/06/24 03:03:28;;;;;;;;;;;;;;;28.45;51.67;98450.47;2046546;28;20967;-54
2022/06/24 03:04:29;;;;;;;;;;;;;;;28.44;51.66;98450.72;2046777;28;19934;-52
2022/06/24 03:05:31;;;;;;;;;;;;;;;28.43;51.67;98455.34;2049340;28;19929;-55
2022/06/24 03:06:32;;;;;;;;;;;;;;;28.44;51.62;98453.44;2044662;28;19934;-55
2022/06/24 03:07:33;;;;;;;;;;;;;;;28.43;52.04;98452.63;2046656;28;19926;-53
2022/06/24 03:08:34;;;;;;;;;;;;;;;28.46;51.63;98456.72;2044416;28;19984;-55
2022/06/24 03:09:36;;;;;;;;;;;;;;;28.44;51.99;98456.16;2046999;28;19925;-56
2022/06/24 03:10:38;;;;;;;;;;;;;;;28.43;51.73;98460.00;2045662;28;19940;-56
2022/06/24 03:11:38;;;;;;;;;;;;;;;28.45;51.46;98452.38;2045459;28;19936;-55
2022/06/24 03:12:40;;;;;;;;;;;;;;;28.46;51.82;98445.81;2045359;28;19934;-56
2022/06/24 03:13:42;;;;;;;;;;;;;;;28.45;51.75;98449.66;2046776;28;19936;-54
2022/06/24 03:14:42;;;;;;;;;;;;;;;28.44;51.73;98448.81;2046295;28;19929;-53
2022/06/24 03:15:45;;;;;;;;;;;;;;;28.44;51.63;98453.44;2046742;28;19969;-55
2022/06/24 03:16:45;;;;;;;;;;;;;;;28.44;51.76;98454.25;2046191;28;19930;-54
2022/06/24 03:17:47;;;;;;;;;;;;;;;28.44;51.82;98453.44;2048361;28;19938;-55
2022/06/24 03:18:47;;;;;;;;;;;;;;;28.44;51.73;98458.91;2044737;28;20508;-55
2022/06/24 03:19:49;;;;;;;;;;;;;;;28.44;51.71;98448.81;2048284;28;20079;-51
2022/06/24 03:20:51;;;;;;;;;;;;;;;28.45;51.55;98457.81;2050284;28;19941;-54
2022/06/24 03:21:51;;;;;;;;;;;;;;;28.44;51.80;98456.97;2049321;28;20467;-54
2022/06/24 03:22:53;;;;;;;;;;;;;;;28.42;51.62;98456.47;2045720;28;19955;-56
2022/06/24 03:23:53;;;;;;;;;;;;;;;28.42;51.51;98453.72;2049252;28;19989;-56
2022/06/24 03:24:56;;;;;;;;;;;;;;;28.43;51.25;98451.81;2048080;28;20511;-54
2022/06/24 03:25:57;;;;;;;;;;;;;;;28.42;51.52;98461.06;2045861;28;20423;-55
2022/06/24 03:26:58;;;;;;;;;;;;;;;28.43;51.50;98457.28;2044562;28;20001;-54
2022/06/24 03:28:00;;;;;;;;;;;;;;;28.43;51.29;98457.28;2046531;28;19930;-54
2022/06/24 03:29:02;;;;;;;;;;;;;;;28.43;51.32;98457.28;2045729;28;19927;-53
2022/06/24 03:30:03;;;;;;;;;;;;;;;28.44;51.33;98458.91;2049391;28;20486;-56
2022/06/24 03:31:05;;;;;;;;;;;;;;;28.44;51.62;98461.63;2048425;28;20360;-54
2022/06/24 03:32:06;;;;;;;;;;;;;;;28.44;51.55;98458.91;2045588;28;19933;-56
2022/06/24 03:33:07;;;;;;;;;;;;;;;28.43;51.70;98462.72;2044391;28;19933;-54
2022/06/24 03:34:08;;;;;;;;;;;;;;;28.43;51.68;98457.28;2043466;28;19933;-54
2022/06/24 03:35:09;;;;;;;;;;;;;;;28.41;51.64;98462.16;2046328;28;20003;-54
2022/06/24 03:36:10;;;;;;;;;;;;;;;28.41;51.34;98464.88;2049369;28;19934;-56
2022/06/24 03:37:12;;;;;;;;;;;;;;;28.40;51.40;98463.25;2048626;28;20029;-55
2022/06/24 03:38:13;;;;;;;;;;;;;;;28.39;51.62;98461.59;2046534;28;19987;-55
2022/06/24 03:39:14;;;;;;;;;;;;;;;28.39;51.28;98467.03;2045624;28;20046;-56
2022/06/24 03:40:16;;;;;;;;;;;;;;;28.35;51.64;98460.50;2048546;28;19927;-53
2022/06/24 03:41:18;;;;;;;;;;;;;;;28.35;51.56;98450.41;2048202;28;20013;-55
2022/06/24 03:42:18;;;;;;;;;;;;;;;28.36;51.59;98462.13;2050238;28;19949;-56
2022/06/24 03:43:20;;;;;;;;;;;;;;;28.36;51.29;98462.97;2051381;28;20409;-55
2022/06/24 03:44:20;;;;;;;;;;;;;;;28.37;51.29;98461.06;2048634;28;20017;-55
2022/06/24 03:45:22;;;;;;;;;;;;;;;28.37;51.35;98463.78;2045146;28;19945;-53
2022/06/24 03:46:23;;;;;;;;;;;;;;;28.37;51.60;98464.59;2046678;28;20028;-54
2022/06/24 03:47:24;;;;;;;;;;;;;;;28.38;51.41;98462.69;2048833;28;20047;-54
2022/06/24 03:48:26;;;;;;;;;;;;;;;28.38;51.19;98470.88;2047364;28;19934;-55
2022/06/24 03:49:26;;;;;;;;;;;;;;;28.35;51.72;98463.25;2047677;28;19965;-56
2022/06/24 03:50:28;;;;;;;;;;;;;;;28.35;51.36;98465.97;2047932;28;19944;-56
2022/06/24 03:51:29;;;;;;;;;;;;;;;28.38;51.65;98476.34;2045667;28;19934;-56
2022/06/24 03:52:30;;;;;;;;;;;;;;;28.36;51.50;98473.03;2045859;28;19977;-54
2022/06/24 03:53:31;;;;;;;;;;;;;;;28.37;51.55;98475.53;2047739;28;19936;-56
2022/06/24 03:54:33;;;;;;;;;;;;;;;28.38;51.27;98468.97;2047541;28;20681;-55
2022/06/24 03:55:36;;;;;;;;;;;;;;;28.37;51.69;98472.78;2047179;28;19930;-54
2022/06/24 03:56:37;;;;;;;;;;;;;;;28.38;51.32;98473.59;2048893;28;19933;-52
2022/06/24 03:57:38;;;;;;;;;;;;;;;28.38;51.49;98473.59;2044497;28;20379;-54
2022/06/24 03:58:39;;;;;;;;;;;;;;;28.39;51.44;98477.97;2048932;28;19930;-54
2022/06/24 03:59:40;;;;;;;;;;;;;;;28.39;51.28;98477.97;2049143;28;19940;-55
2022/06/24 04:00:42;;;;;;;;;;;;;;;28.39;51.11;98483.41;2037209;28;20918;-56
2022/06/24 04:01:43;;;;;;;;;;;;;;;28.39;51.40;98480.69;2042400;28;19925;-56
2022/06/24 04:02:45;;;;;;;;;;;;;;;28.40;51.34;98485.06;2045992;28;20232;-53
2022/06/24 04:03:45;;;;;;;;;;;;;;;28.39;51.28;98480.69;2046697;28;20044;-54
2022/06/24 04:04:47;;;;;;;;;;;;;;;28.40;51.11;98482.34;2046906;28;19926;-56
2022/06/24 04:05:47;;;;;;;;;;;;;;;28.39;51.42;98481.53;2044638;28;20569;-52
2022/06/24 04:06:49;;;;;;;;;;;;;;;28.37;51.41;98480.97;2041745;28;19926;-55
2022/06/24 04:07:50;;;;;;;;;;;;;;;28.39;51.36;98480.69;2049016;28;20934;-54
2022/06/24 04:08:52;;;;;;;;;;;;;;;28.38;51.44;98485.31;2044941;28;19930;-55
2022/06/24 04:09:53;;;;;;;;;;;;;;;28.39;51.51;98483.41;2042171;28;20014;-52
2022/06/24 04:10:56;;;;;;;;;;;;;;;28.38;51.33;98482.59;2045438;28;19987;-52
2022/06/24 04:11:56;;;;;;;;;;;;;;;28.39;51.34;98480.69;2044620;28;19965;-52
2022/06/24 04:12:58;;;;;;;;;;;;;;;28.39;51.25;98486.13;2043785;28;19930;-53
2022/06/24 04:13:58;;;;;;;;;;;;;;;28.36;51.36;98482.06;2046707;28;20524;-51
2022/06/24 04:15:17;;;;;;;;;;;;;;;28.36;51.74;98492.13;2046500;28;19930;-52
2022/06/24 04:16:18;;;;;;;;;;;;;;;28.37;51.24;98488.34;2046249;28;19991;-54
2022/06/24 04:17:19;;;;;;;;;;;;;;;28.37;51.63;98489.16;2048556;28;20012;-54
2022/06/24 04:18:20;;;;;;;;;;;;;;;28.35;51.13;98485.06;2044891;28;19927;-54
2022/06/24 04:19:21;;;;;;;;;;;;;;;28.35;51.61;98491.31;2043394;28;19936;-52
2022/06/24 04:20:23;;;;;;;;;;;;;;;28.36;51.34;98481.22;2047238;28;19933;-53
2022/06/24 04:21:24;;;;;;;;;;;;;;;28.37;51.23;98482.88;2046060;28;19942;-53
2022/06/24 04:22:25;;;;;;;;;;;;;;;28.35;51.46;98485.88;2040131;28;20389;-50
2022/06/24 04:23:26;;;;;;;;;;;;;;;28.36;51.70;98478.50;2051347;28;19926;-52
2022/06/24 04:24:28;;;;;;;;;;;;;;;28.35;51.18;98474.16;2050562;28;20016;-52
2022/06/24 04:25:29;;;;;;;;;;;;;;;28.38;51.42;98476.34;2048091;28;20662;-53
2022/06/24 04:26:31;;;;;;;;;;;;;;;28.36;51.44;98473.91;2047430;28;20521;-54
2022/06/24 04:27:33;;;;;;;;;;;;;;;28.35;51.24;98469.50;2051644;28;20367;-50
2022/06/24 04:28:33;;;;;;;;;;;;;;;28.34;51.58;98475.25;2048912;28;20504;-53
2022/06/24 04:29:35;;;;;;;;;;;;;;;28.35;51.32;98471.41;2044833;28;19926;-53
2022/06/24 04:30:36;;;;;;;;;;;;;;;28.35;51.38;98476.88;2046359;28;19933;-57
2022/06/24 04:31:37;;;;;;;;;;;;;;;28.34;51.49;98473.34;2045700;28;19956;-54
2022/06/24 04:32:38;;;;;;;;;;;;;;;28.35;51.30;98485.06;2048707;28;19972;-54
2022/06/24 04:33:40;;;;;;;;;;;;;;;28.35;51.44;98476.88;2050323;28;19934;-50
2022/06/24 04:34:41;;;;;;;;;;;;;;;28.34;51.51;98477.97;2046093;28;19969;-52
2022/06/24 04:35:42;;;;;;;;;;;;;;;28.35;51.35;98480.41;2046526;28;20164;-53
2022/06/24 04:36:43;;;;;;;;;;;;;;;28.36;51.06;98486.69;2044832;28;19995;-52
2022/06/24 04:37:45;;;;;;;;;;;;;;;28.36;51.52;98478.50;2049406;28;20542;-56
2022/06/24 04:38:45;;;;;;;;;;;;;;;28.35;51.42;98471.41;2044428;28;21901;-53
2022/06/24 04:39:47;;;;;;;;;;;;;;;28.35;51.51;98476.88;2041431;28;19936;-52
2022/06/24 04:40:49;;;;;;;;;;;;;;;28.35;51.53;98480.41;2047605;28;21375;-56
2022/06/24 04:41:51;;;;;;;;;;;;;;;28.35;51.28;98476.88;2046002;28;20500;-52
2022/06/24 04:42:53;;;;;;;;;;;;;;;28.36;51.35;98481.22;2049066;28;19945;-52
2022/06/24 04:43:53;;;;;;;;;;;;;;;28.36;51.35;98489.41;2045410;28;21027;-52
2022/06/24 04:44:55;;;;;;;;;;;;;;;28.34;51.10;98492.44;2044202;28;20003;-53
2022/06/24 04:45:55;;;;;;;;;;;;;;;28.34;51.58;98492.44;2045996;28;19972;-53
2022/06/24 04:46:57;;;;;;;;;;;;;;;28.34;51.57;98497.06;2046470;28;20072;-53
2022/06/24 04:47:57;;;;;;;;;;;;;;;28.33;51.39;98489.97;2049319;28;19926;-53
2022/06/24 04:48:59;;;;;;;;;;;;;;;28.33;51.60;98489.97;2037710;28;20940;-52
2022/06/24 04:49:59;;;;;;;;;;;;;;;28.33;51.73;98490.78;2046784;28;19933;-53
2022/06/24 04:51:02;;;;;;;;;;;;;;;28.34;51.60;98495.16;2048011;28;20434;-52
2022/06/24 04:52:02;;;;;;;;;;;;;;;28.34;51.31;98491.63;2049667;28;19930;-53
2022/06/24 04:53:04;;;;;;;;;;;;;;;28.34;51.49;98492.44;2048583;28;19979;-51
2022/06/24 04:54:05;;;;;;;;;;;;;;;28.35;51.13;98493.25;2046969;28;19929;-51
2022/06/24 04:55:08;;;;;;;;;;;;;;;28.34;51.39;98495.16;2045406;28;19987;-51
2022/06/24 04:56:08;;;;;;;;;;;;;;;28.35;51.16;98495.97;2048940;28;19930;-52
2022/06/24 04:57:12;;;;;;;;;;;;;;;28.35;51.69;98493.25;2050834;28;20302;-53
2022/06/24 04:58:13;;;;;;;;;;;;;;;28.31;51.75;98492.97;2048152;28;19929;-54
2022/06/24 04:59:15;;;;;;;;;;;;;;;28.31;51.70;98497.63;2049015;28;20481;-51
2022/06/24 05:00:15;;;;;;;;;;;;;;;28.30;51.52;98491.31;2046958;28;19953;-53
2022/06/24 05:01:17;;;;;;;;;;;;;;;28.31;51.28;98492.97;2049218;28;19937;-52
2022/06/24 05:02:17;;;;;;;;;;;;;;;28.31;51.38;98494.88;2050076;28;19937;-53
2022/06/24 05:03:19;;;;;;;;;;;;;;;28.33;51.56;98489.97;2053870;28;20506;-53
2022/06/24 05:04:19;;;;;;;;;;;;;;;28.32;51.31;98491.88;2051184;28;19926;-50
2022/06/24 05:05:21;;;;;;;;;;;;;;;28.31;51.62;98486.72;2049490;28;19930;-53
2022/06/24 05:06:22;;;;;;;;;;;;;;;28.32;51.17;98496.50;2050116;28;20607;-54
2022/06/24 05:07:23;;;;;;;;;;;;;;;28.32;51.56;98486.41;2049477;28;19934;-51
2022/06/24 05:08:24;;;;;;;;;;;;;;;28.34;51.43;98491.63;2048387;28;19934;-53
2022/06/24 05:09:26;;;;;;;;;;;;;;;28.33;51.77;98489.97;2050293;28;20541;-52
2022/06/24 05:10:26;;;;;;;;;;;;;;;28.33;51.59;98495.41;2049594;28;20070;-53
2022/06/24 05:11:28;;;;;;;;;;;;;;;28.32;51.62;98493.78;2049135;28;19972;-53
2022/06/24 05:12:30;;;;;;;;;;;;;;;28.32;51.71;98493.78;2052230;28;20229;-53
2022/06/24 05:13:31;;;;;;;;;;;;;;;28.31;51.39;98492.97;2047320;28;20689;-54
2022/06/24 05:14:33;;;;;;;;;;;;;;;28.32;51.58;98496.50;2047786;28;19927;-52
2022/06/24 05:15:34;;;;;;;;;;;;;;;28.32;51.62;98507.44;2049175;28;20057;-53
2022/06/24 05:16:35;;;;;;;;;;;;;;;28.32;51.39;98500.06;2045147;28;19925;-51
2022/06/24 05:17:36;;;;;;;;;;;;;;;28.31;51.46;98503.88;2050843;28;20981;-53
2022/06/24 05:18:37;;;;;;;;;;;;;;;28.32;51.68;98504.69;2050443;28;19926;-54
2022/06/24 05:19:39;;;;;;;;;;;;;;;28.32;51.41;98504.69;2047176;28;20011;-51
2022/06/24 05:20:39;;;;;;;;;;;;;;;28.30;51.63;98502.22;2049012;28;19930;-51
2022/06/24 05:21:41;;;;;;;;;;;;;;;28.31;51.72;98505.81;2052404;28;20047;-54
2022/06/24 05:22:41;;;;;;;;;;;;;;;28.30;51.84;98504.94;2039343;28;19934;-53
2022/06/24 05:23:43;;;;;;;;;;;;;;;28.28;51.87;98502.50;2048395;28;19934;-54
2022/06/24 05:24:43;;;;;;;;;;;;;;;28.31;51.72;98500.34;2046813;28;19941;-53
2022/06/24 05:25:45;;;;;;;;;;;;;;;28.30;51.80;98502.22;2048794;28;19937;-55
2022/06/24 05:26:46;;;;;;;;;;;;;;;28.29;51.63;98506.88;2047904;28;19940;-53